< < Back
Terminal Aerodrome Forecast


Current Version              Previous Versions:   1  2  3  4  5  6  7  8  9  

Terminal Aerodrome Forecast

973
FTUS44 KMRX 281120
TAFTYS
TAF
KTYS 281120Z 2812/2912 35008KT P6SM BKN050
     FM281500 36007KT P6SM SCT040 SCT150
     FM282100 02003KT P6SM SKC=

Latest METAR

288
SAUS80 KWBC 290900
MTRTYS
METAR KTYS 290853Z 02004KT 10SM CLR M02/M08 A3034 RMK AO2 SLP279
T10221083 53003


USA.gov is the U.S. government's official web portal to all federal, state and local government web resources and services.